Time;durP1;ratioP1;P1;durP2;ratioP2;P2;SDS_P1;SDS_P2;PMS_P1;PMS_P2;Temp;Humidity;BMP_temperature;BMP_pressure;BME280_temperature;BME280_humidity;BME280_pressure;Samples;Min_cycle;Max_cycle;Signal;HPM_P1;HPM_P2
2021/04/28 05:00:34;;;;;;;3.65;3.08;;;;;;;5.86;56.13;100423.03;1849155;75;20181;-63
2021/04/28 05:03:03;;;;;;;2.90;2.55;;;;;;;6.01;55.73;100425.16;1822446;77;21642;-74
2021/04/28 05:05:32;;;;;;;4.22;2.60;;;;;;;6.22;54.79;100427.52;1799355;78;22432;-72
2021/04/28 05:08:01;;;;;;;2.83;2.55;;;;;;;6.41;54.24;100425.17;1770289;80;21606;-67
2021/04/28 05:10:30;;;;;;;5.62;2.95;;;;;;;6.59;53.89;100429.30;1743396;80;21516;-69
2021/04/28 05:12:58;;;;;;;3.45;3.15;;;;;;;6.79;53.44;100425.20;1768560;80;21061;-70
2021/04/28 05:15:27;;;;;;;13.03;3.80;;;;;;;6.96;52.95;100428.88;1784561;78;20944;-68
2021/04/28 05:17:57;;;;;;;4.62;3.05;;;;;;;7.15;52.42;100423.06;1782896;79;22733;-67
2021/04/28 05:23:08;;;;;;;4.58;3.00;;;;;;;7.50;51.70;100429.09;1727029;83;21077;-64
2021/04/28 05:25:55;;;;;;;8.88;3.10;;;;;;;7.72;51.55;100430.86;1728438;81;21528;-70
2021/04/28 05:28:24;;;;;;;4.53;3.33;;;;;;;7.92;50.87;100436.98;1729337;83;21524;-66
2021/04/28 05:30:53;;;;;;;4.70;3.12;;;;;;;8.12;50.46;100440.53;1711773;83;21150;-68
2021/04/28 05:33:22;;;;;;;6.87;3.67;;;;;;;8.30;49.83;100441.95;1744827;82;20974;-68
2021/04/28 05:35:52;;;;;;;9.23;3.30;;;;;;;8.46;49.57;100446.08;1735020;82;21014;-66
2021/04/28 05:38:21;;;;;;;8.28;3.00;;;;;;;8.60;49.20;100443.77;1736364;80;21586;-67
2021/04/28 05:40:51;;;;;;;8.35;3.50;;;;;;;8.76;48.74;100448.33;1729423;82;21033;-64
2021/04/28 05:43:20;;;;;;;10.50;3.65;;;;;;;8.91;48.45;100444.61;1738647;82;21679;-68
2021/04/28 05:45:49;;;;;;;5.42;3.50;;;;;;;9.05;48.18;100449.22;1740086;82;21661;-72
2021/04/28 05:48:17;;;;;;;9.70;4.00;;;;;;;9.20;48.20;100448.53;1746354;80;21483;-70
2021/04/28 05:50:46;;;;;;;11.12;4.10;;;;;;;9.36;47.55;100452.61;1745648;82;21518;-66
2021/04/28 05:53:14;;;;;;;9.83;3.85;;;;;;;9.52;47.25;100457.52;1744817;82;21013;-65
2021/04/28 05:55:43;;;;;;;5.50;3.72;;;;;;;9.67;46.98;100448.16;1738089;80;22095;-67
2021/04/28 05:58:12;;;;;;;4.83;3.33;;;;;;;9.84;46.67;100457.80;1720057;82;21710;-65
2021/04/28 06:00:40;;;;;;;8.05;3.70;;;;;;;10.03;46.38;100461.21;1741203;80;22153;-67
2021/04/28 06:03:10;;;;;;;6.53;3.40;;;;;;;10.23;46.34;100455.11;1694941;84;21185;-65
2021/04/28 06:05:43;;;;;;;8.40;4.35;;;;;;;10.44;45.94;100456.66;1688083;84;21650;-66
2021/04/28 06:08:13;;;;;;;12.88;4.58;;;;;;;10.61;45.51;100461.89;1740385;82;21423;-67
2021/04/28 06:10:42;;;;;;;5.08;3.47;;;;;;;10.90;45.10;100458.28;1659372;85;21572;-65
2021/04/28 06:13:11;;;;;;;9.08;4.50;;;;;;;11.33;44.71;100460.36;1714688;83;21671;-63
2021/04/28 06:15:41;;;;;;;10.60;4.47;;;;;;;11.91;43.91;100453.82;1714797;83;21618;-64
2021/04/28 06:18:10;;;;;;;6.90;4.50;;;;;;;12.50;42.60;100457.44;1714693;83;21574;-65
2021/04/28 06:20:40;;;;;;;9.73;4.42;;;;;;;13.07;41.87;100455.81;1716796;82;21209;-64
2021/04/28 06:23:09;;;;;;;5.78;3.83;;;;;;;13.61;40.83;100459.47;1706240;83;21046;-63
2021/04/28 06:25:40;;;;;;;7.20;3.85;;;;;;;14.07;39.50;100462.29;1703651;84;21385;-63
2021/04/28 06:28:08;;;;;;;7.35;4.47;;;;;;;14.30;39.34;100462.52;1703661;83;20962;-63
2021/04/28 06:30:38;;;;;;;12.68;4.45;;;;;;;14.58;38.86;100459.42;1707477;82;21012;-70
2021/04/28 06:33:08;;;;;;;7.90;4.80;;;;;;;14.89;38.67;100462.98;1704053;82;21569;-67
2021/04/28 06:35:39;;;;;;;8.55;4.85;;;;;;;15.21;37.74;100459.48;1703798;83;20974;-66
2021/04/28 06:38:08;;;;;;;9.78;4.37;;;;;;;15.44;37.40;100463.63;1703698;83;21591;-66
2021/04/28 06:40:36;;;;;;;6.85;4.45;;;;;;;15.61;36.76;100468.55;1740462;81;20963;-68
2021/04/28 06:43:07;;;;;;;9.95;4.10;;;;;;;15.79;36.60;100467.27;1703866;84;21645;-66
2021/04/28 06:45:37;;;;;;;7.28;4.05;;;;;;;15.92;36.16;100468.09;1724507;81;21210;-70
2021/04/28 06:48:08;;;;;;;8.25;4.20;;;;;;;16.03;36.06;100465.98;1698258;84;21489;-70
2021/04/28 06:50:36;;;;;;;5.45;3.45;;;;;;;16.11;35.58;100475.94;1725182;83;21510;-70
2021/04/28 06:53:07;;;;;;;10.35;4.62;;;;;;;16.23;35.59;100469.81;1711419;81;21002;-66
2021/04/28 06:55:36;;;;;;;4.25;3.33;;;;;;;16.38;35.49;100483.16;1703964;83;21506;-70
2021/04/28 06:58:06;;;;;;;6.58;3.70;;;;;;;16.47;34.96;100481.14;1704146;83;21366;-67
2021/04/28 07:00:38;;;;;;;5.12;3.50;;;;;;;16.49;34.88;100481.88;1700505;81;21100;-72
2021/04/28 07:03:07;;;;;;;5.95;3.58;;;;;;;16.61;34.96;100485.39;1714044;82;21074;-69
2021/04/28 07:05:36;;;;;;;4.42;3.40;;;;;;;16.69;34.77;100476.97;1732635;82;21624;-73
2021/04/28 07:08:06;;;;;;;3.83;3.27;;;;;;;16.66;35.07;100489.87;1731963;82;21232;-70
2021/04/28 07:10:35;;;;;;;4.47;3.77;;;;;;;16.69;35.22;100487.02;1732251;82;22167;-70
2021/04/28 07:13:07;;;;;;;3.62;3.27;;;;;;;16.80;35.00;100492.29;1729527;82;21050;-67
2021/04/28 07:15:36;;;;;;;4.72;3.35;;;;;;;16.89;34.29;100494.72;1712060;82;21504;-65
2021/04/28 07:18:05;;;;;;;3.70;3.33;;;;;;;16.96;34.30;100492.83;1659479;85;21675;-69
2021/04/28 07:20:33;;;;;;;4.47;3.37;;;;;;;17.03;33.80;100486.62;1717030;82;21586;-66
2021/04/28 07:23:02;;;;;;;4.03;3.40;;;;;;;17.00;33.70;100489.02;1672330;84;22402;-71
2021/04/28 07:25:31;;;;;;;3.55;3.12;;;;;;;16.95;33.81;100491.63;1671738;84;21615;-67
2021/04/28 07:28:00;;;;;;;3.08;2.70;;;;;;;16.86;34.05;100499.73;1677300;84;21058;-71
2021/04/28 07:30:29;;;;;;;3.45;3.00;;;;;;;16.88;34.29;100502.24;1673050;84;21583;-65
2021/04/28 07:32:57;;;;;;;2.98;2.77;;;;;;;16.95;33.89;100501.67;1677414;84;22351;-70
2021/04/28 07:35:26;;;;;;;4.05;2.52;;;;;;;17.07;33.40;100491.19;1666670;84;21936;-74
2021/04/28 07:37:57;;;;;;;3.12;2.75;;;;;;;17.13;32.79;100502.56;1673479;82;21663;-75
2021/04/28 07:40:25;;;;;;;2.50;2.30;;;;;;;17.09;32.44;100499.33;1671191;84;20965;-67
2021/04/28 07:42:54;;;;;;;4.00;2.70;;;;;;;17.11;32.93;100503.16;1672709;84;21678;-66
2021/04/28 07:45:26;;;;;;;2.90;2.70;;;;;;;17.11;32.85;100502.68;1673682;83;21605;-66
2021/04/28 07:47:55;;;;;;;2.20;2.10;;;;;;;17.18;32.87;100501.27;1675815;85;22243;-67
2021/04/28 07:50:24;;;;;;;2.90;2.70;;;;;;;17.29;32.41;100501.73;1688219;83;21569;-66
2021/04/28 07:52:53;;;;;;;4.05;3.12;;;;;;;17.31;32.01;100495.40;1707752;83;20945;-65
2021/04/28 07:55:23;;;;;;;3.15;2.87;;;;;;;17.18;32.45;100502.58;1698277;83;21657;-65
2021/04/28 07:57:54;;;;;;;2.87;2.67;;;;;;;17.06;33.07;100498.24;1712339;80;21593;-66
2021/04/28 08:00:23;;;;;;;2.40;2.20;;;;;;;17.02;32.93;100503.38;1733238;80;22084;-66
2021/04/28 08:02:51;;;;;;;2.58;2.47;;;;;;;17.12;32.70;100506.98;1723595;82;21143;-69
2021/04/28 08:05:20;;;;;;;5.10;3.33;;;;;;;17.28;32.63;100506.64;1694502;83;21590;-66
2021/04/28 08:07:49;;;;;;;3.35;2.95;;;;;;;17.37;32.18;100505.94;1701094;83;21688;-64
2021/04/28 08:10:18;;;;;;;2.75;2.35;;;;;;;17.17;32.13;100514.54;1709000;82;20962;-68
2021/04/28 08:12:46;;;;;;;6.12;3.00;;;;;;;16.71;32.12;100507.46;1691296;84;22172;-62
2021/04/28 08:15:17;;;;;;;5.17;2.90;;;;;;;16.25;32.63;100516.05;1729119;82;21518;-67
2021/04/28 08:17:46;;;;;;;2.92;2.62;;;;;;;15.81;33.45;100513.11;1695915;82;21000;-63
2021/04/28 08:20:16;;;;;;;3.67;2.35;;;;;;;15.45;34.01;100512.55;1731321;80;21507;-65
2021/04/28 08:22:45;;;;;;;3.00;2.42;;;;;;;15.25;34.30;100516.05;1713867;82;21453;-65
2021/04/28 08:25:14;;;;;;;4.33;2.45;;;;;;;15.31;34.77;100513.48;1718198;82;21407;-66
2021/04/28 08:27:43;;;;;;;3.17;2.60;;;;;;;15.49;34.45;100508.77;1716558;82;21580;-64
2021/04/28 08:30:13;;;;;;;2.83;2.10;;;;;;;15.60;33.15;100516.27;1718222;82;21592;-63
2021/04/28 08:32:42;;;;;;;4.17;2.58;;;;;;;15.65;32.44;100509.40;1716215;82;21046;-64
2021/04/28 08:35:16;;;;;;;2.00;1.90;;;;;;;15.70;33.19;100511.23;1716421;82;21552;-63
2021/04/28 08:37:45;;;;;;;2.52;2.33;;;;;;;15.83;33.11;100513.38;1718052;82;21945;-64
2021/04/28 08:40:19;;;;;;;2.98;2.05;;;;;;;15.93;32.14;100508.32;1684931;84;22082;-66
2021/04/28 08:42:49;;;;;;;2.08;1.92;;;;;;;15.96;32.13;100510.73;1674661;85;21503;-65
2021/04/28 08:45:18;;;;;;;2.10;2.00;;;;;;;15.90;32.18;100511.16;1673804;85;21018;-62
2021/04/28 08:47:48;;;;;;;1.90;1.80;;;;;;;15.75;31.95;100511.75;1714956;82;21525;-64
2021/04/28 08:50:17;;;;;;;2.08;1.92;;;;;;;15.57;32.08;100507.80;1704035;82;21525;-64
2021/04/28 08:52:46;;;;;;;4.65;2.20;;;;;;;15.38;32.56;100513.44;1723453;82;21686;-65
2021/04/28 08:55:15;;;;;;;3.90;2.17;;;;;;;15.18;32.21;100518.74;1726392;82;21200;-66
2021/04/28 08:57:43;;;;;;;2.30;2.10;;;;;;;14.94;32.12;100525.61;1715732;82;21604;-67
2021/04/28 09:00:13;;;;;;;2.72;2.52;;;;;;;14.74;31.87;100516.92;1721880;82;21599;-66
2021/04/28 09:02:59;;;;;;;3.40;2.42;;;;;;;14.59;31.60;100510.89;1709569;82;21194;-64
2021/04/28 09:05:33;;;;;;;2.35;2.15;;;;;;;14.44;31.96;100512.72;1729778;82;21667;-69
2021/04/28 09:08:09;;;;;;;5.90;2.58;;;;;;;14.35;32.17;100514.61;1721165;82;21625;-66
2021/04/28 09:10:37;;;;;;;;;;;;;;;14.28;32.44;100512.01;1700196;84;20970;-67
2021/04/28 09:13:19;;;;;;;3.52;2.30;;;;;;;14.23;33.07;100511.45;1678146;84;20218;-68
2021/04/28 09:15:50;;;;;;;2.87;2.58;;;;;;;14.19;32.64;100515.20;1674294;83;21516;-68
2021/04/28 09:18:23;;;;;;;4.08;3.77;;;;;;;14.16;32.67;100520.64;1665651;84;21104;-64
2021/04/28 09:21:13;;;;;;;3.10;2.45;;;;;;;14.17;32.94;100514.46;1671330;85;21012;-66
2021/04/28 09:23:43;;;;;;;3.00;2.52;;;;;;;14.28;32.93;100517.25;1670661;82;21659;-68
2021/04/28 09:26:32;;;;;;;2.47;2.20;;;;;;;14.32;32.86;100513.50;1715249;82;21232;-66
2021/04/28 09:29:41;;;;;;;4.45;2.72;;;;;;;14.40;33.27;100522.98;1830829;77;22308;-68
2021/04/28 09:32:12;;;;;;;2.08;1.98;;;;;;;14.49;33.11;100523.75;1765168;79;20925;-68
2021/04/28 09:34:42;;;;;;;2.33;2.12;;;;;;;14.58;32.66;100521.01;1785223;79;21257;-66
2021/04/28 09:37:16;;;;;;;2.70;2.00;;;;;;;14.68;32.51;100522.09;1722697;82;21095;-64
2021/04/28 09:39:48;;;;;;;2.67;2.47;;;;;;;14.74;32.21;100523.48;1730101;81;21623;-67
2021/04/28 09:42:19;;;;;;;4.50;2.45;;;;;;;14.80;32.64;100522.58;1727835;83;20982;-70
2021/04/28 09:44:54;;;;;;;2.20;2.00;;;;;;;14.87;32.77;100518.62;1721926;83;21608;-66
2021/04/28 09:47:27;;;;;;;2.27;2.10;;;;;;;14.96;33.04;100520.63;1730596;80;21532;-68
2021/04/28 09:50:02;;;;;;;2.47;2.27;;;;;;;15.06;32.87;100520.87;1731944;80;21049;-65
2021/04/28 09:52:37;;;;;;;3.22;2.92;;;;;;;15.15;32.45;100518.95;1756629;81;21517;-70
2021/04/28 09:55:09;;;;;;;5.28;2.30;;;;;;;15.20;32.46;100522.54;1743252;81;21634;-70
2021/04/28 10:00:33;;;;;;;2.70;2.50;;;;;;;15.32;31.69;100511.22;1718967;81;21230;-68
2021/04/28 10:03:04;;;;;;;2.30;2.10;;;;;;;15.43;31.50;100507.87;1738804;81;21594;-70
2021/04/28 10:05:41;;;;;;;2.87;2.67;;;;;;;15.47;30.75;100507.56;1736050;80;21100;-75
2021/04/28 10:08:20;;;;;;;2.72;2.30;;;;;;;15.49;30.66;100497.80;1734523;81;21092;-75
2021/04/28 10:10:52;;;;;;;2.27;2.05;;;;;;;15.58;31.54;100495.05;1728020;81;21057;-67
2021/04/28 10:13:27;;;;;;;2.17;1.70;;;;;;;15.71;31.05;100498.94;1727406;83;26826;-69
2021/04/28 10:15:58;;;;;;;3.75;2.42;;;;;;;15.82;30.87;100501.19;1729444;81;21037;-71
2021/04/28 10:18:33;;;;;;;3.30;2.47;;;;;;;15.86;30.96;100501.81;1757941;81;20962;-66
2021/04/28 10:20:59;;;;;;;6.92;2.60;;;;;;;15.88;31.24;100495.51;1747760;81;21106;-62
2021/04/28 10:23:28;;;;;;;2.05;1.87;;;;;;;15.92;31.08;100498.28;1724379;81;21595;-63
2021/04/28 10:25:57;;;;;;;2.27;2.08;;;;;;;15.93;30.65;100501.28;1727954;81;22092;-62
2021/04/28 10:28:26;;;;;;;2.10;1.92;;;;;;;15.89;30.28;100495.88;1730677;80;21632;-64
2021/04/28 10:30:55;;;;;;;2.02;1.82;;;;;;;15.83;29.79;100505.50;1723265;82;21564;-62
2021/04/28 10:33:26;;;;;;;2.17;2.00;;;;;;;15.70;29.96;100500.73;1784438;79;21626;-63
2021/04/28 10:35:57;;;;;;;4.30;3.35;;;;;;;15.55;30.17;100501.31;1779517;79;21618;-61
2021/04/28 10:38:27;;;;;;;2.70;2.50;;;;;;;15.51;30.31;100506.88;1793185;79;21349;-64
2021/04/28 10:40:58;;;;;;;2.77;2.25;;;;;;;15.47;29.92;100512.81;1724888;81;21057;-64
2021/04/28 10:43:55;;;;;;;3.37;1.82;;;;;;;15.47;30.29;100502.78;1705889;83;21095;-64
2021/04/28 10:46:23;;;;;;;;;;;;;;;15.50;30.08;100498.64;1745970;81;21502;-60
2021/04/28 10:48:54;;;;;;;3.70;1.77;;;;;;;15.49;30.21;100501.73;1745482;81;20164;-65
2021/04/28 10:51:37;;;;;;;2.30;2.10;;;;;;;15.48;30.17;100504.46;1743535;81;21393;-66
2021/04/28 10:54:27;;;;;;;2.37;1.70;;;;;;;15.46;29.94;100500.63;1725013;83;21677;-65
2021/04/28 10:57:05;;;;;;;2.30;2.10;;;;;;;15.46;30.06;100494.07;1754648;81;21051;-64
2021/04/28 10:59:41;;;;;;;6.80;2.10;;;;;;;15.43;29.69;100498.69;1742609;81;21049;-65
2021/04/28 11:02:10;;;;;;;2.35;2.10;;;;;;;15.35;30.03;100497.42;1722221;81;21013;-60
2021/04/28 11:04:45;;;;;;;2.52;2.20;;;;;;;15.38;29.77;100496.38;1748183;81;22072;-63
2021/04/28 11:07:15;;;;;;;2.20;2.10;;;;;;;15.38;30.21;100500.31;1737899;81;20949;-61
2021/04/28 11:09:44;;;;;;;2.47;1.95;;;;;;;15.39;30.40;100495.44;1734102;82;21010;-62
2021/04/28 11:12:13;;;;;;;2.40;1.80;;;;;;;15.41;30.61;100497.48;1741272;82;20953;-67
2021/04/28 11:14:50;;;;;;;1.87;1.75;;;;;;;15.44;30.28;100491.19;1741447;82;21510;-66
2021/04/28 11:17:25;;;;;;;3.02;2.10;;;;;;;15.45;30.08;100496.33;1741407;82;21534;-68
2021/04/28 11:19:56;;;;;;;2.02;1.77;;;;;;;15.42;29.90;100491.76;1744720;81;21067;-64
2021/04/28 11:22:28;;;;;;;2.02;1.85;;;;;;;15.35;30.02;100489.55;1754025;81;21036;-66
2021/04/28 11:25:16;;;;;;;2.17;1.92;;;;;;;15.30;30.37;100484.25;1749331;81;21040;-64
2021/04/28 11:28:03;;;;;;;3.70;2.08;;;;;;;15.22;30.65;100488.70;1746378;81;21088;-62
2021/04/28 11:30:41;;;;;;;1.90;1.80;;;;;;;15.15;30.98;100486.16;1719502;82;22024;-63
2021/04/28 11:33:34;;;;;;;2.00;1.90;;;;;;;15.12;30.63;100486.83;1724416;82;20961;-62
2021/04/28 11:36:11;;;;;;;3.45;1.62;;;;;;;15.17;31.04;100480.80;1718895;83;21009;-66
2021/04/28 11:38:44;;;;;;;2.45;1.85;;;;;;;15.32;30.89;100480.58;1718982;83;20954;-67
2021/04/28 11:41:27;;;;;;;2.72;1.82;;;;;;;15.42;30.36;100474.23;1709426;83;20943;-68
2021/04/28 11:44:01;;;;;;;1.95;1.80;;;;;;;15.45;30.18;100471.87;1722103;81;22383;-66
2021/04/28 11:46:32;;;;;;;2.27;2.08;;;;;;;15.35;30.23;100471.66;1720310;83;20961;-69
2021/04/28 11:49:03;;;;;;;1.98;1.67;;;;;;;15.22;30.41;100475.59;1720984;82;21551;-69
2021/04/28 11:51:35;;;;;;;3.22;1.77;;;;;;;15.11;30.34;100471.56;1723066;81;20965;-66
2021/04/28 11:54:06;;;;;;;1.95;1.82;;;;;;;15.06;30.65;100476.75;1723669;81;21475;-62
2021/04/28 11:56:45;;;;;;;4.10;3.05;;;;;;;15.04;30.64;100477.33;1696891;81;21630;-66
2021/04/28 11:59:26;;;;;;;3.87;3.33;;;;;;;15.00;30.96;100468.35;1747411;81;21079;-62
2021/04/28 12:02:08;;;;;;;2.45;2.25;;;;;;;14.96;31.73;100471.28;1736043;81;21653;-64
2021/04/28 12:04:45;;;;;;;4.83;2.17;;;;;;;14.91;31.54;100470.75;1748753;82;21594;-63
2021/04/28 12:07:16;;;;;;;2.30;1.75;;;;;;;14.86;31.53;100471.52;1734947;81;20933;-64
2021/04/28 12:09:48;;;;;;;2.62;1.80;;;;;;;14.76;30.87;100463.92;1725533;83;21210;-63
2021/04/28 12:12:50;;;;;;;1.80;1.70;;;;;;;14.61;31.03;100467.92;1727174;81;21020;-62
2021/04/28 12:15:21;;;;;;;1.72;1.60;;;;;;;14.49;30.93;100457.39;1765749;79;21500;-67
2021/04/28 12:17:53;;;;;;;2.67;1.87;;;;;;;14.31;30.67;100455.49;1772471;80;21015;-62
2021/04/28 12:20:23;;;;;;;1.72;1.62;;;;;;;14.17;30.99;100454.22;1768799;80;21467;-62
2021/04/28 12:22:53;;;;;;;2.20;2.00;;;;;;;14.00;31.40;100450.89;1773070;79;21204;-66
2021/04/28 12:25:23;;;;;;;2.25;1.87;;;;;;;13.87;32.17;100453.94;1783232;80;21551;-63
2021/04/28 12:27:52;;;;;;;1.90;1.80;;;;;;;13.79;31.92;100449.65;1780954;80;21212;-62
2021/04/28 12:30:27;;;;;;;2.00;1.62;;;;;;;13.76;32.55;100451.61;1767636;80;21562;-63
2021/04/28 12:32:57;;;;;;;2.47;2.10;;;;;;;13.73;32.80;100450.03;1773180;80;21594;-64
2021/04/28 12:35:29;;;;;;;2.87;1.82;;;;;;;13.71;32.47;100444.52;1769199;80;21639;-62
2021/04/28 12:38:12;;;;;;;1.85;1.72;;;;;;;13.67;33.12;100447.79;1769186;80;21114;-65
2021/04/28 12:41:16;;;;;;;3.60;1.60;;;;;;;13.62;32.51;100445.45;1760622;80;21175;-64
2021/04/28 12:43:45;;;;;;;2.00;1.90;;;;;;;13.55;32.43;100436.33;1759825;79;20997;-62
2021/04/28 12:46:17;;;;;;;1.60;1.50;;;;;;;13.50;32.60;100429.23;1765848;79;20929;-65
2021/04/28 12:48:55;;;;;;;2.33;2.10;;;;;;;13.44;32.98;100435.30;1759953;79;21308;-68
2021/04/28 12:51:24;;;;;;;1.98;1.70;;;;;;;13.39;33.24;100439.97;1761438;80;21542;-64
2021/04/28 12:53:55;;;;;;;3.58;2.33;;;;;;;13.33;32.92;100435.48;1770859;79;21440;-65
2021/04/28 12:56:24;;;;;;;1.90;1.75;;;;;;;13.29;33.16;100437.08;1784169;79;21543;-64
2021/04/28 12:58:53;;;;;;;1.90;1.75;;;;;;;13.28;32.89;100440.16;1773568;79;21577;-62
2021/04/28 13:01:24;;;;;;;2.72;1.80;;;;;;;13.27;32.96;100433.70;1773580;79;21436;-66
2021/04/28 13:03:53;;;;;;;2.45;2.20;;;;;;;13.22;32.55;100426.61;1775540;79;21563;-67
2021/04/28 13:06:24;;;;;;;2.35;1.77;;;;;;;13.14;32.91;100425.76;1762228;80;21611;-68
2021/04/28 13:08:54;;;;;;;2.15;1.65;;;;;;;13.07;33.54;100424.44;1768693;80;21641;-63
2021/04/28 13:11:26;;;;;;;1.92;1.82;;;;;;;13.03;32.81;100425.56;1783874;80;21020;-67
2021/04/28 13:13:59;;;;;;;2.17;1.62;;;;;;;13.00;32.51;100423.97;1778241;80;21184;-68
2021/04/28 13:16:47;;;;;;;1.65;1.55;;;;;;;12.96;32.66;100426.38;1756362;80;20994;-66
2021/04/28 13:19:31;;;;;;;4.33;2.83;;;;;;;12.93;32.91;100420.50;1733977;81;21544;-68
2021/04/28 13:22:01;;;;;;;2.55;2.17;;;;;;;12.96;32.99;100424.23;1764554;80;20989;-65
2021/04/28 13:24:37;;;;;;;2.45;2.25;;;;;;;12.98;32.89;100418.45;1744508;80;21053;-68
2021/04/28 13:27:27;;;;;;;2.12;1.92;;;;;;;12.96;33.08;100420.31;1742860;81;21258;-63
2021/04/28 13:30:07;;;;;;;1.85;1.70;;;;;;;12.94;32.84;100419.09;1749467;80;20966;-69
2021/04/28 13:32:55;;;;;;;1.77;1.67;;;;;;;12.95;33.46;100416.02;1751617;80;21024;-65
2021/04/28 13:35:34;;;;;;;1.70;1.60;;;;;;;12.96;33.02;100413.31;1759642;80;22170;-64
2021/04/28 13:38:04;;;;;;;2.20;2.00;;;;;;;13.03;32.57;100409.87;1763072;80;21550;-66
2021/04/28 13:40:36;;;;;;;1.62;1.47;;;;;;;13.13;32.45;100414.92;1748533;82;21186;-66
2021/04/28 13:43:08;;;;;;;2.80;2.10;;;;;;;13.19;31.91;100405.44;1758215;80;21020;-65
2021/04/28 13:45:38;;;;;;;1.80;1.67;;;;;;;13.24;32.20;100407.74;1757188;80;20935;-65
2021/04/28 13:48:07;;;;;;;1.55;1.45;;;;;;;13.28;32.44;100406.16;1755499;80;21045;-69
2021/04/28 13:50:37;;;;;;;1.90;1.80;;;;;;;13.31;31.70;100402.05;1744500;82;21034;-66
2021/04/28 13:53:08;;;;;;;1.90;1.80;;;;;;;13.31;31.96;100408.59;1755299;80;21075;-68
2021/04/28 13:55:36;;;;;;;3.90;1.87;;;;;;;13.33;32.02;100403.27;1764874;80;21029;-67
2021/04/28 13:58:05;;;;;;;1.92;1.80;;;;;;;13.33;32.34;100401.48;1760674;80;21584;-64
2021/04/28 14:00:34;;;;;;;3.72;1.65;;;;;;;13.32;32.01;100406.81;1760410;80;21594;-66
2021/04/28 14:03:03;;;;;;;1.90;1.80;;;;;;;13.28;32.04;100402.70;1785734;80;21364;-67
2021/04/28 14:05:32;;;;;;;2.98;2.05;;;;;;;13.23;32.10;100401.67;1783438;80;22019;-64
2021/04/28 14:08:01;;;;;;;1.72;1.57;;;;;;;13.23;32.09;100405.59;1788729;80;21566;-70
2021/04/28 14:10:29;;;;;;;2.85;1.75;;;;;;;13.24;32.15;100403.82;1788538;80;21468;-67
2021/04/28 14:12:58;;;;;;;2.77;1.55;;;;;;;13.25;32.27;100401.58;1788777;80;21076;-67
2021/04/28 14:15:27;;;;;;;4.20;1.57;;;;;;;13.27;31.95;100404.48;1788766;80;21468;-68
2021/04/28 14:17:55;;;;;;;2.80;1.62;;;;;;;13.26;31.77;100400.18;1789028;80;22120;-66
2021/04/28 14:20:23;;;;;;;2.20;2.00;;;;;;;13.24;32.09;100402.05;1788853;80;21586;-65
2021/04/28 14:22:52;;;;;;;4.20;2.12;;;;;;;13.24;32.32;100402.05;1788917;80;21578;-65
2021/04/28 14:25:20;;;;;;;2.10;1.90;;;;;;;13.22;32.42;100399.98;1788906;80;21471;-70
2021/04/28 14:27:50;;;;;;;2.60;2.35;;;;;;;13.21;32.35;100397.00;1775388;80;21477;-63
2021/04/28 14:30:22;;;;;;;4.00;2.58;;;;;;;13.20;32.08;100399.24;1752584;81;21532;-64
2021/04/28 14:32:51;;;;;;;2.02;1.92;;;;;;;13.18;31.80;100394.60;1739575;80;21093;-63
2021/04/28 14:35:20;;;;;;;4.08;2.25;;;;;;;13.15;31.61;100394.76;1723777;83;21532;-63
2021/04/28 14:37:48;;;;;;;3.25;1.90;;;;;;;13.12;31.67;100394.09;1724474;82;21504;-63
2021/04/28 14:40:17;;;;;;;1.85;1.57;;;;;;;13.09;32.21;100393.81;1724463;83;21642;-63
2021/04/28 14:42:47;;;;;;;3.75;3.40;;;;;;;13.04;32.10;100391.95;1724324;82;22098;-63
2021/04/28 14:45:17;;;;;;;3.85;3.22;;;;;;;13.01;32.42;100385.59;1723893;81;21052;-62
2021/04/28 14:47:45;;;;;;;3.22;2.92;;;;;;;12.98;32.60;100384.00;1723838;83;21048;-62
2021/04/28 14:50:15;;;;;;;3.92;3.00;;;;;;;12.94;32.79;100382.50;1723745;83;21657;-62
2021/04/28 14:52:43;;;;;;;3.10;2.62;;;;;;;12.89;32.86;100383.71;1723918;83;21076;-62
2021/04/28 14:55:13;;;;;;;3.17;2.60;;;;;;;12.82;32.84;100382.39;1723862;81;22147;-61
2021/04/28 14:57:41;;;;;;;3.98;2.47;;;;;;;12.74;32.74;100384.18;1723847;83;21598;-62
2021/04/28 15:00:12;;;;;;;8.95;3.20;;;;;;;12.65;33.05;100382.11;1724219;82;21373;-63
2021/04/28 15:02:40;;;;;;;5.05;3.37;;;;;;;12.58;33.15;100386.01;1723387;82;21171;-61
2021/04/28 15:05:11;;;;;;;4.15;2.95;;;;;;;12.51;33.22;100384.22;1723480;82;21044;-62
2021/04/28 15:07:40;;;;;;;7.75;4.97;;;;;;;12.45;33.39;100376.73;1724536;82;21359;-61
2021/04/28 15:10:10;;;;;;;5.60;3.72;;;;;;;12.42;33.64;100380.83;1724383;83;21500;-62
2021/04/28 15:12:39;;;;;;;4.83;3.30;;;;;;;12.38;33.56;100372.83;1724464;83;20914;-62
2021/04/28 15:15:10;;;;;;;2.98;2.70;;;;;;;12.34;33.74;100372.63;1731977;82;21488;-62
2021/04/28 15:17:38;;;;;;;2.92;2.62;;;;;;;12.29;33.70;100361.60;1737254;82;20903;-63
2021/04/28 15:20:09;;;;;;;8.73;4.10;;;;;;;12.26;33.54;100369.61;1737253;82;22336;-63
2021/04/28 15:22:38;;;;;;;9.98;5.92;;;;;;;12.23;33.74;100361.48;1737115;82;21547;-61
2021/04/28 15:25:17;;;;;;;6.35;4.28;;;;;;;12.19;33.76;100369.58;1759392;81;21013;-61
2021/04/28 15:27:46;;;;;;;10.85;5.87;;;;;;;12.14;33.50;100364.62;1759368;81;21496;-63
2021/04/28 15:30:15;;;;;;;5.47;3.62;;;;;;;12.09;33.34;100364.50;1740407;81;21614;-62
2021/04/28 15:32:45;;;;;;;4.05;3.40;;;;;;;12.03;33.40;100370.44;1759280;81;21188;-64
2021/04/28 15:35:14;;;;;;;5.47;3.55;;;;;;;11.98;33.54;100362.52;1759297;80;21563;-64
2021/04/28 15:37:43;;;;;;;6.47;3.37;;;;;;;11.94;33.39;100363.16;1740683;81;20993;-64
2021/04/28 15:40:15;;;;;;;3.95;3.05;;;;;;;11.90;33.70;100359.50;1759190;81;21579;-65
2021/04/28 15:42:44;;;;;;;3.02;2.83;;;;;;;11.89;33.80;100365.19;1759312;81;20961;-65
2021/04/28 15:45:14;;;;;;;3.80;2.90;;;;;;;11.88;33.68;100367.88;1759261;81;21368;-65
2021/04/28 15:47:46;;;;;;;7.53;3.70;;;;;;;11.87;33.51;100370.11;1759226;80;20997;-63
2021/04/28 15:50:15;;;;;;;7.58;5.03;;;;;;;11.86;34.28;100361.44;1759200;81;21009;-64
2021/04/28 15:52:45;;;;;;;6.83;5.25;;;;;;;11.88;34.34;100367.41;1751200;81;21467;-62
2021/04/28 15:55:15;;;;;;;4.20;3.80;;;;;;;11.89;34.15;100364.34;1759349;81;21025;-65
2021/04/28 15:57:44;;;;;;;8.55;3.45;;;;;;;11.91;34.43;100366.41;1759274;81;22388;-64
2021/04/28 16:00:14;;;;;;;3.37;2.70;;;;;;;11.92;34.12;100362.87;1759128;80;21856;-64
2021/04/28 16:02:43;;;;;;;2.60;2.40;;;;;;;11.93;33.25;100366.70;1759244;80;20997;-64
2021/04/28 16:05:11;;;;;;;2.98;2.77;;;;;;;11.92;33.11;100371.54;1759196;81;21659;-64
2021/04/28 16:07:39;;;;;;;4.37;3.60;;;;;;;11.90;32.57;100364.72;1759244;81;21500;-64
2021/04/28 16:10:10;;;;;;;5.20;4.15;;;;;;;11.86;32.29;100363.21;1758898;80;22086;-64
2021/04/28 16:12:38;;;;;;;4.80;4.20;;;;;;;11.80;32.33;100359.17;1758854;81;20961;-64
2021/04/28 16:15:09;;;;;;;7.60;3.92;;;;;;;11.75;32.62;100363.77;1759270;81;21509;-63
2021/04/28 16:17:38;;;;;;;4.33;2.85;;;;;;;11.70;32.96;100363.17;1759233;80;20934;-65
2021/04/28 16:20:08;;;;;;;4.37;2.83;;;;;;;11.62;32.96;100366.20;1759275;81;21567;-64
2021/04/28 16:22:36;;;;;;;5.28;3.00;;;;;;;11.56;33.08;100355.30;1759254;81;21266;-64
2021/04/28 16:25:06;;;;;;;4.22;2.70;;;;;;;11.49;33.01;100361.30;1793959;79;21583;-63
2021/04/28 16:27:35;;;;;;;5.80;2.50;;;;;;;11.44;33.40;100358.56;1803953;79;20930;-63
2021/04/28 16:30:05;;;;;;;3.98;2.52;;;;;;;11.36;33.63;100359.82;1803952;79;21556;-63
2021/04/28 16:32:34;;;;;;;2.60;2.40;;;;;;;11.29;33.87;100360.23;1803987;79;21010;-63
2021/04/28 16:35:05;;;;;;;5.12;3.10;;;;;;;11.21;34.07;100358.02;1804000;79;22312;-64
2021/04/28 16:37:33;;;;;;;3.87;3.30;;;;;;;11.14;34.44;100358.46;1803815;79;21559;-66
2021/04/28 16:40:02;;;;;;;3.70;2.62;;;;;;;11.07;34.50;100359.24;1804025;79;21491;-64
2021/04/28 16:42:33;;;;;;;5.85;3.60;;;;;;;10.99;34.32;100364.02;1803895;79;21014;-65
2021/04/28 16:45:01;;;;;;;3.12;2.92;;;;;;;10.92;34.39;100363.95;1804077;79;21618;-65
2021/04/28 16:47:30;;;;;;;4.97;2.55;;;;;;;10.84;34.69;100359.13;1804004;79;22083;-65
2021/04/28 16:49:59;;;;;;;4.67;2.95;;;;;;;10.77;34.90;100363.47;1803952;79;21481;-64
2021/04/28 16:52:28;;;;;;;2.50;2.30;;;;;;;10.68;35.20;100360.86;1804054;79;21556;-64